createdAt,value
2023-05-14T00:01:52.272Z,16.10
2023-05-14T00:04:24.186Z,19.67
2023-05-14T00:06:51.767Z,15.73
2023-05-14T00:09:22.329Z,13.90
2023-05-14T00:11:49.731Z,14.07
2023-05-14T00:14:25.468Z,17.42
2023-05-14T00:16:52.574Z,15.63
2023-05-14T00:19:19.911Z,17.50
2023-05-14T00:21:47.863Z,20.88
2023-05-14T00:24:19.620Z,14.88
2023-05-14T00:26:46.899Z,16.13
2023-05-14T00:29:14.022Z,17.33
2023-05-14T00:31:41.281Z,17.90
2023-05-14T00:34:08.429Z,18.13
2023-05-14T00:36:35.606Z,18.35
2023-05-14T00:39:02.808Z,17.20
2023-05-14T00:41:30.547Z,22.25
2023-05-14T00:44:01.398Z,22.33
2023-05-14T00:46:46.901Z,21.80
2023-05-14T00:49:14.602Z,19.60
2023-05-14T00:51:51.353Z,20.13
2023-05-14T00:54:19.817Z,18.65
2023-05-14T00:56:48.278Z,19.45
2023-05-14T00:59:15.482Z,22.48
2023-05-14T01:01:43.021Z,22.92
2023-05-14T01:04:11.748Z,20.15
2023-05-14T01:06:56.326Z,22.48
2023-05-14T01:09:47.093Z,18.73
2023-05-14T01:12:48.505Z,16.35
2023-05-14T01:15:21.737Z,18.50
2023-05-14T01:17:58.651Z,18.65
2023-05-14T01:20:26.885Z,16.95
2023-05-14T01:22:54.177Z,20.88
2023-05-14T01:25:21.460Z,21.23
2023-05-14T01:28:18.373Z,17.60
2023-05-14T01:30:54.013Z,18.27
2023-05-14T01:33:25.012Z,24.77
2023-05-14T01:35:54.911Z,20.33
2023-05-14T01:38:23.060Z,20.27
2023-05-14T01:40:51.197Z,20.90
2023-05-14T01:43:20.063Z,24.52
2023-05-14T01:45:48.825Z,25.25
2023-05-14T01:48:16.400Z,28.30
2023-05-14T01:50:43.679Z,29.15
2023-05-14T01:53:10.774Z,26.20
2023-05-14T01:55:37.933Z,25.30
2023-05-14T01:58:05.378Z,29.10
2023-05-14T02:00:32.648Z,26.80
2023-05-14T02:02:59.925Z,24.88
2023-05-14T02:05:27.192Z,31.08
2023-05-14T02:07:54.815Z,31.98
2023-05-14T02:10:22.183Z,30.00
2023-05-14T02:12:50.596Z,35.33
2023-05-14T02:15:17.838Z,39.55
2023-05-14T02:17:48.915Z,31.95
2023-05-14T02:20:16.455Z,33.28
2023-05-14T02:22:50.156Z,36.03
2023-05-14T02:25:17.410Z,32.72
2023-05-14T02:27:44.939Z,30.55
2023-05-14T02:30:12.832Z,28.58
2023-05-14T02:32:40.475Z,27.45
2023-05-14T02:35:08.228Z,26.02
2023-05-14T02:37:35.436Z,31.17
2023-05-14T02:40:02.710Z,30.27
2023-05-14T02:42:29.889Z,30.95
2023-05-14T02:44:56.973Z,29.30
2023-05-14T02:47:24.242Z,30.83
2023-05-14T02:49:51.576Z,28.40
2023-05-14T02:52:18.895Z,28.17
2023-05-14T02:54:46.030Z,25.58
2023-05-14T02:57:13.598Z,33.70
2023-05-14T02:59:41.845Z,31.70
2023-05-14T03:02:10.970Z,36.20
2023-05-14T03:04:38.587Z,33.47
2023-05-14T03:07:05.856Z,31.27
2023-05-14T03:09:33.671Z,32.15
2023-05-14T03:12:01.541Z,26.13
2023-05-14T03:14:28.809Z,28.58
2023-05-14T03:16:56.182Z,27.38
2023-05-14T03:19:23.486Z,26.77
2023-05-14T03:21:50.823Z,24.13
2023-05-14T03:24:18.055Z,34.60
2023-05-14T03:26:45.447Z,36.97
2023-05-14T03:29:12.584Z,34.00
2023-05-14T03:31:40.917Z,31.70
2023-05-14T03:34:08.093Z,31.27
2023-05-14T03:36:36.423Z,28.75
2023-05-14T03:39:03.998Z,31.77
2023-05-14T03:41:31.225Z,39.40
2023-05-14T03:43:58.641Z,30.75
2023-05-14T03:46:25.813Z,30.25
2023-05-14T03:48:53.079Z,26.00
2023-05-14T03:51:27.613Z,26.90
2023-05-14T03:53:55.029Z,38.25
2023-05-14T03:56:35.308Z,36.35
2023-05-14T04:01:36.943Z,32.45
2023-05-14T04:04:05.686Z,36.67
2023-05-14T04:06:43.748Z,33.00
2023-05-14T04:09:29.899Z,32.13
2023-05-14T04:12:11.419Z,33.42
2023-05-14T04:14:44.153Z,33.70
2023-05-14T04:17:15.094Z,28.38
2023-05-14T04:19:47.513Z,32.13
2023-05-14T04:25:17.710Z,23.48
2023-05-14T04:27:57.469Z,19.73
2023-05-14T04:30:28.040Z,23.00
2023-05-14T04:32:55.858Z,27.92
2023-05-14T04:35:25.023Z,28.58
2023-05-14T04:37:53.266Z,27.75
2023-05-14T04:40:23.399Z,27.25
2023-05-14T04:43:00.573Z,27.83
2023-05-14T04:45:39.140Z,24.08
2023-05-14T04:48:08.098Z,23.50
2023-05-14T04:51:05.022Z,28.80
2023-05-14T04:53:40.842Z,27.63
2023-05-14T04:56:07.998Z,25.15
2023-05-14T04:58:35.420Z,25.80
2023-05-14T05:01:18.344Z,29.00
2023-05-14T05:03:45.816Z,30.95
2023-05-14T05:06:26.788Z,31.13
2023-05-14T05:08:56.365Z,25.63
2023-05-14T05:11:23.529Z,25.42
2023-05-14T05:13:50.926Z,25.95
2023-05-14T05:16:18.098Z,25.77
2023-05-14T05:18:51.320Z,25.75
2023-05-14T05:21:20.210Z,33.28
2023-05-14T05:26:56.072Z,23.67
2023-05-14T05:29:26.839Z,23.60
2023-05-14T05:31:54.073Z,27.10
2023-05-14T05:34:22.726Z,29.90
2023-05-14T05:36:53.116Z,22.48
2023-05-14T05:39:51.222Z,24.50
2023-05-14T05:42:18.769Z,22.77
2023-05-14T05:44:50.158Z,26.13
2023-05-14T05:47:24.384Z,20.48
2023-05-14T05:50:01.741Z,24.38
2023-05-14T05:52:32.354Z,22.13
2023-05-14T05:55:01.260Z,21.05
2023-05-14T05:57:35.823Z,25.27
2023-05-14T06:00:17.623Z,28.80
2023-05-14T06:02:58.599Z,20.38
2023-05-14T06:05:27.329Z,15.90
2023-05-14T06:07:54.952Z,21.27
2023-05-14T06:10:22.344Z,21.98
2023-05-14T06:12:53.171Z,20.60
2023-05-14T06:15:21.845Z,22.20
2023-05-14T06:17:53.131Z,21.38
2023-05-14T06:20:21.150Z,23.77
2023-05-14T06:22:51.422Z,19.52
2023-05-14T06:25:18.790Z,17.50
2023-05-14T06:27:46.032Z,19.05
2023-05-14T06:30:13.745Z,20.90
2023-05-14T06:32:40.881Z,20.90
2023-05-14T06:35:11.991Z,15.85
2023-05-14T06:37:43.325Z,17.50
2023-05-14T06:40:12.866Z,17.70
2023-05-14T06:42:55.830Z,21.05
2023-05-14T06:45:36.858Z,26.08
2023-05-14T06:48:04.921Z,24.05
2023-05-14T06:50:33.183Z,21.70
2023-05-14T06:53:04.237Z,19.30
2023-05-14T06:55:32.340Z,20.33
2023-05-14T06:58:04.654Z,20.42
2023-05-14T07:00:35.135Z,17.83
2023-05-14T07:05:52.327Z,18.58
2023-05-14T07:08:36.217Z,18.48
2023-05-14T07:11:03.863Z,17.08
2023-05-14T07:13:31.058Z,15.85
2023-05-14T07:15:59.071Z,19.95
2023-05-14T07:18:30.719Z,18.95
2023-05-14T07:21:04.942Z,21.70
2023-05-14T07:23:39.226Z,18.38
2023-05-14T07:26:08.218Z,17.95
2023-05-14T07:28:43.919Z,18.77
2023-05-14T07:31:17.986Z,19.10
2023-05-14T07:33:48.946Z,21.50
2023-05-14T07:36:16.812Z,18.85
2023-05-14T07:38:44.691Z,24.63
2023-05-14T07:41:20.174Z,18.80
2023-05-14T07:43:52.891Z,24.95
2023-05-14T07:46:23.969Z,27.00
2023-05-14T07:48:51.382Z,22.50
2023-05-14T07:51:23.926Z,20.23
2023-05-14T07:54:05.002Z,20.70
2023-05-14T07:56:35.192Z,20.88
2023-05-14T07:59:09.559Z,19.70
2023-05-14T08:01:39.347Z,18.38
2023-05-14T08:04:06.753Z,16.10
2023-05-14T08:06:34.175Z,23.08
2023-05-14T08:09:01.387Z,21.83
2023-05-14T08:11:50.148Z,21.80
2023-05-14T08:14:41.470Z,24.53
2023-05-14T08:17:13.723Z,21.48
2023-05-14T08:19:50.172Z,21.00
2023-05-14T08:22:18.239Z,21.58
2023-05-14T08:24:52.224Z,18.48
2023-05-14T08:27:24.244Z,21.75
2023-05-14T08:29:52.255Z,25.17
2023-05-14T08:32:26.808Z,23.23
2023-05-14T08:34:56.860Z,20.55
2023-05-14T08:37:24.311Z,18.23
2023-05-14T08:39:51.605Z,20.83
2023-05-14T08:42:22.472Z,18.52
2023-05-14T08:44:59.009Z,24.92
2023-05-14T08:47:26.667Z,24.25
2023-05-14T08:50:06.470Z,28.90
2023-05-14T08:52:34.960Z,23.48
2023-05-14T08:55:05.539Z,19.92
2023-05-14T08:57:34.422Z,18.65
2023-05-14T09:00:06.520Z,24.60
2023-05-14T09:02:33.940Z,20.50
2023-05-14T09:05:02.847Z,24.83
2023-05-14T09:07:29.935Z,20.42
2023-05-14T09:09:57.269Z,17.90
2023-05-14T09:12:24.797Z,22.42
2023-05-14T09:14:52.026Z,22.42
2023-05-14T09:17:20.396Z,18.67
2023-05-14T09:19:49.409Z,21.90
2023-05-14T09:22:17.981Z,16.35
2023-05-14T09:24:46.340Z,14.65
2023-05-14T09:27:22.632Z,15.23
2023-05-14T09:29:49.787Z,18.85
2023-05-14T09:32:17.007Z,20.58
2023-05-14T09:34:44.275Z,17.63
2023-05-14T09:37:11.431Z,16.00
2023-05-14T09:39:39.231Z,17.42
2023-05-14T09:42:06.783Z,17.15
2023-05-14T09:44:36.402Z,17.42
2023-05-14T09:47:04.370Z,20.83
2023-05-14T09:49:31.655Z,15.80
2023-05-14T09:51:59.060Z,16.95
2023-05-14T09:54:27.611Z,14.93
2023-05-14T09:56:55.843Z,16.00
2023-05-14T09:59:41.403Z,18.00
2023-05-14T10:02:23.946Z,19.70
2023-05-14T10:08:05.680Z,18.15
2023-05-14T10:14:11.561Z,17.52
2023-05-14T10:16:54.708Z,16.52
2023-05-14T10:19:44.128Z,19.73
2023-05-14T10:22:15.990Z,16.17
2023-05-14T10:24:54.495Z,19.23
2023-05-14T10:27:47.390Z,20.55
2023-05-14T10:30:29.557Z,18.60
2023-05-14T10:33:20.251Z,22.05
2023-05-14T10:36:40.299Z,15.35
2023-05-14T10:40:10.752Z,16.10
2023-05-14T10:42:45.123Z,14.50
2023-05-14T10:45:16.411Z,17.50
2023-05-14T10:47:46.200Z,16.17
2023-05-14T10:50:20.781Z,13.60
2023-05-14T10:53:13.045Z,17.50
2023-05-14T10:55:42.259Z,16.85
2023-05-14T10:58:11.013Z,13.55
2023-05-14T11:00:39.194Z,17.27
2023-05-14T11:03:07.216Z,16.75
2023-05-14T11:05:39.300Z,16.10
2023-05-14T11:08:37.198Z,15.57
2023-05-14T11:11:05.637Z,18.35
2023-05-14T11:13:34.525Z,17.50
2023-05-14T11:16:11.989Z,13.45
2023-05-14T11:18:53.094Z,11.95
2023-05-14T11:21:23.021Z,13.57
2023-05-14T11:23:50.382Z,12.82
2023-05-14T11:26:18.867Z,17.30
2023-05-14T11:28:48.420Z,14.00
2023-05-14T11:31:15.823Z,12.48
2023-05-14T11:33:43.453Z,17.35
2023-05-14T11:36:19.942Z,15.30
2023-05-14T11:39:19.690Z,13.75
2023-05-14T11:41:46.926Z,15.23
2023-05-14T11:44:30.316Z,12.57
2023-05-14T11:46:58.991Z,14.57
2023-05-14T11:49:29.203Z,16.35
2023-05-14T11:52:00.915Z,15.95
2023-05-14T11:54:57.006Z,16.00
2023-05-14T11:57:26.210Z,13.93
2023-05-14T12:00:23.156Z,13.43
2023-05-14T12:02:50.741Z,14.43
2023-05-14T12:05:18.842Z,12.93
2023-05-14T12:07:56.523Z,12.93
2023-05-14T12:10:33.481Z,14.68
2023-05-14T12:13:10.601Z,16.05
2023-05-14T12:15:37.851Z,18.65
2023-05-14T12:18:22.897Z,12.65
2023-05-14T12:20:52.049Z,18.52
2023-05-14T12:23:32.548Z,13.23
2023-05-14T12:26:09.482Z,14.85
2023-05-14T12:28:43.410Z,24.75
2023-05-14T12:31:11.052Z,17.65
2023-05-14T12:33:38.261Z,14.07
2023-05-14T12:36:21.768Z,13.23
2023-05-14T12:38:50.839Z,14.20
2023-05-14T12:41:18.939Z,14.57
2023-05-14T12:43:48.719Z,13.80
2023-05-14T12:46:17.209Z,14.63
2023-05-14T12:48:44.373Z,16.33
2023-05-14T12:51:11.637Z,14.63
2023-05-14T12:53:38.901Z,14.65
2023-05-14T12:56:06.826Z,15.18
2023-05-14T12:58:34.234Z,12.52
2023-05-14T13:01:03.991Z,13.30
2023-05-14T13:03:35.447Z,14.45
2023-05-14T13:06:02.722Z,13.85
2023-05-14T13:08:29.904Z,9.68
2023-05-14T13:10:57.276Z,10.93
2023-05-14T13:13:28.342Z,10.20
2023-05-14T13:15:58.693Z,12.23
2023-05-14T13:18:26.697Z,13.10
2023-05-14T13:20:54.746Z,14.05
2023-05-14T13:23:22.065Z,12.15
2023-05-14T13:25:50.170Z,14.00
2023-05-14T13:28:17.895Z,11.15
2023-05-14T13:31:12.040Z,14.02
2023-05-14T13:33:42.924Z,13.68
2023-05-14T13:36:11.875Z,16.70
2023-05-14T13:38:39.252Z,17.33
2023-05-14T13:41:06.881Z,15.93
2023-05-14T13:43:35.169Z,22.33
2023-05-14T13:46:04.102Z,15.18
2023-05-14T13:48:31.344Z,13.88
2023-05-14T13:50:59.144Z,16.55
2023-05-14T13:53:26.791Z,14.75
2023-05-14T13:56:00.249Z,14.80
2023-05-14T13:58:28.176Z,13.30
2023-05-14T14:00:55.457Z,12.63
2023-05-14T14:03:22.768Z,12.82
2023-05-14T14:05:50.244Z,11.48
2023-05-14T14:08:23.256Z,11.32
2023-05-14T14:10:52.573Z,15.93
2023-05-14T14:13:21.277Z,13.40
2023-05-14T14:15:49.405Z,10.52
2023-05-14T14:18:16.670Z,12.88
2023-05-14T14:20:44.049Z,10.40
2023-05-14T14:23:11.376Z,7.63
2023-05-14T14:25:38.667Z,12.25
2023-05-14T14:28:05.850Z,10.13
2023-05-14T14:30:33.060Z,10.23
2023-05-14T14:33:01.424Z,8.65
2023-05-14T14:35:28.792Z,7.97
2023-05-14T14:37:55.962Z,9.63
2023-05-14T14:40:24.086Z,7.18
2023-05-14T14:42:51.240Z,9.45
2023-05-14T14:45:18.730Z,8.77
2023-05-14T14:47:47.227Z,7.90
2023-05-14T14:50:14.482Z,8.05
2023-05-14T14:52:45.750Z,8.90
2023-05-14T14:55:13.278Z,8.55
2023-05-14T14:57:40.483Z,7.80
2023-05-14T15:00:09.603Z,8.52
2023-05-14T15:02:48.076Z,6.78
2023-05-14T15:05:44.589Z,7.97
2023-05-14T15:08:11.919Z,7.57
2023-05-14T15:10:39.465Z,6.75
2023-05-14T15:13:17.767Z,6.90
2023-05-14T15:15:45.063Z,7.72
2023-05-14T15:18:12.638Z,7.13
2023-05-14T15:20:40.368Z,8.80
2023-05-14T15:23:07.809Z,6.80
2023-05-14T15:25:35.048Z,7.80
2023-05-14T15:28:02.464Z,5.43
2023-05-14T15:30:30.924Z,6.32
2023-05-14T15:32:58.193Z,16.10
2023-05-14T15:35:25.580Z,7.10
2023-05-14T15:37:59.195Z,8.40
2023-05-14T15:40:36.290Z,8.27
2023-05-14T15:43:03.859Z,6.47
2023-05-14T15:45:31.056Z,8.77
2023-05-14T15:48:01.293Z,6.10
2023-05-14T15:50:32.101Z,6.65
2023-05-14T15:53:00.547Z,7.88
2023-05-14T15:55:28.173Z,8.13
2023-05-14T15:57:55.995Z,6.35
2023-05-14T16:00:26.680Z,7.63
2023-05-14T16:02:54.161Z,7.40
2023-05-14T16:05:21.474Z,9.55
2023-05-14T16:07:50.076Z,7.60
2023-05-14T16:10:18.055Z,7.65
2023-05-14T16:12:48.376Z,10.70
2023-05-14T16:15:18.477Z,7.30
2023-05-14T16:17:45.937Z,9.57
2023-05-14T16:20:13.348Z,8.65
2023-05-14T16:22:44.962Z,9.50
2023-05-14T16:25:12.865Z,7.55
2023-05-14T16:27:43.258Z,6.70
2023-05-14T16:30:14.031Z,8.27
2023-05-14T16:32:47.161Z,8.43
2023-05-14T16:35:17.280Z,8.73
2023-05-14T16:37:50.015Z,7.20
2023-05-14T16:40:30.079Z,7.30
2023-05-14T16:43:00.148Z,9.02
2023-05-14T16:45:42.596Z,7.47
2023-05-14T16:48:11.093Z,7.75
2023-05-14T16:50:48.821Z,6.88
2023-05-14T16:53:16.625Z,8.25
2023-05-14T16:55:43.887Z,8.32
2023-05-14T16:58:11.966Z,10.25
2023-05-14T17:00:39.330Z,7.43
2023-05-14T17:03:07.249Z,12.23
2023-05-14T17:05:38.265Z,8.15
2023-05-14T17:08:19.602Z,7.45
2023-05-14T17:11:20.162Z,8.63
2023-05-14T17:13:58.950Z,8.40
2023-05-14T17:16:30.387Z,7.70
2023-05-14T17:19:01.526Z,6.35
2023-05-14T17:24:00.375Z,8.63
2023-05-14T17:26:27.811Z,6.13
2023-05-14T17:28:55.178Z,6.18
2023-05-14T17:31:23.305Z,5.88
2023-05-14T17:33:51.526Z,7.30
2023-05-14T17:36:18.753Z,7.28
2023-05-14T17:38:46.064Z,6.90
2023-05-14T17:41:13.296Z,7.88
2023-05-14T17:43:40.778Z,8.68
2023-05-14T17:46:09.481Z,11.38
2023-05-14T17:48:36.995Z,13.90
2023-05-14T17:51:04.248Z,9.70
2023-05-14T17:53:31.600Z,13.15
2023-05-14T17:55:58.811Z,11.50
2023-05-14T17:58:26.111Z,7.38
2023-05-14T18:00:53.462Z,7.55
2023-05-14T18:03:20.771Z,6.70
2023-05-14T18:05:54.005Z,6.57
2023-05-14T18:08:21.431Z,6.45
2023-05-14T18:10:48.671Z,5.68
2023-05-14T18:13:19.663Z,5.07
2023-05-14T18:15:47.043Z,5.35
2023-05-14T18:18:18.985Z,4.63
2023-05-14T18:20:46.157Z,4.60
2023-05-14T18:23:13.360Z,8.45
2023-05-14T18:25:44.447Z,11.57
2023-05-14T18:28:12.384Z,12.73
2023-05-14T18:30:39.628Z,16.58
2023-05-14T18:33:07.534Z,10.95
2023-05-14T18:35:35.602Z,12.40
2023-05-14T18:38:03.121Z,11.95
2023-05-14T18:40:30.816Z,14.77
2023-05-14T18:42:58.163Z,14.20
2023-05-14T18:45:32.810Z,21.05
2023-05-14T18:48:15.627Z,18.40
2023-05-14T18:50:46.205Z,19.33
2023-05-14T18:53:13.874Z,16.20
2023-05-14T18:55:41.592Z,19.73
2023-05-14T18:58:18.587Z,20.13
2023-05-14T19:01:01.733Z,20.48
2023-05-14T19:03:29.874Z,18.20
2023-05-14T19:06:10.374Z,21.50
2023-05-14T19:08:48.399Z,27.02
2023-05-14T19:11:25.222Z,21.13
2023-05-14T19:14:04.211Z,22.50
2023-05-14T19:16:32.633Z,20.63
2023-05-14T19:19:05.417Z,20.80
2023-05-14T19:21:36.688Z,19.23
2023-05-14T19:24:04.366Z,20.10
2023-05-14T19:26:43.845Z,24.45
2023-05-14T19:29:11.465Z,23.83
2023-05-14T19:31:57.476Z,20.05
2023-05-14T19:34:24.755Z,18.13
2023-05-14T19:36:51.941Z,30.30
2023-05-14T19:39:19.195Z,30.33
2023-05-14T19:41:46.381Z,25.27
2023-05-14T19:44:13.603Z,28.63
2023-05-14T19:46:41.175Z,28.73
2023-05-14T19:49:12.514Z,27.10
2023-05-14T19:51:39.753Z,32.03
2023-05-14T19:54:07.130Z,21.90
2023-05-14T19:56:35.134Z,22.48
2023-05-14T19:59:02.525Z,24.23
2023-05-14T20:01:29.760Z,15.55
2023-05-14T20:03:56.851Z,13.30
2023-05-14T20:06:23.982Z,13.48
2023-05-14T20:08:51.610Z,10.80
2023-05-14T20:11:26.118Z,8.98
2023-05-14T20:13:53.469Z,8.40
2023-05-14T20:16:21.139Z,7.68
2023-05-14T20:18:48.584Z,6.55
2023-05-14T20:21:18.298Z,7.35
2023-05-14T20:23:45.675Z,6.65
2023-05-14T20:26:39.124Z,5.60
2023-05-14T20:29:06.678Z,5.88
2023-05-14T20:31:33.932Z,5.10
2023-05-14T20:34:01.221Z,4.30
2023-05-14T20:36:29.974Z,4.75
2023-05-14T20:38:57.240Z,4.40
2023-05-14T20:41:24.484Z,3.45
2023-05-14T20:43:51.612Z,3.88
2023-05-14T20:46:18.831Z,4.55
2023-05-14T20:48:48.068Z,2.97
2023-05-14T20:51:15.802Z,4.72
2023-05-14T20:54:00.990Z,3.38
2023-05-14T20:56:37.920Z,2.97
2023-05-14T20:59:05.140Z,3.25
2023-05-14T21:01:33.224Z,3.30
2023-05-14T21:04:19.788Z,2.42
2023-05-14T21:06:47.714Z,2.55
2023-05-14T21:09:28.784Z,3.05
2023-05-14T21:12:08.570Z,3.25
2023-05-14T21:14:46.103Z,4.38
2023-05-14T21:17:14.276Z,2.20
2023-05-14T21:19:41.468Z,3.17
2023-05-14T21:22:08.951Z,3.15
2023-05-14T21:24:41.537Z,3.50
2023-05-14T21:27:09.129Z,2.55
2023-05-14T21:29:39.899Z,3.05
2023-05-14T21:32:13.871Z,3.45
2023-05-14T21:34:58.553Z,3.15
2023-05-14T21:37:35.584Z,2.97
2023-05-14T21:40:03.890Z,4.60
2023-05-14T21:42:32.698Z,1.73
2023-05-14T21:45:01.933Z,1.60
2023-05-14T21:47:43.375Z,2.45
2023-05-14T21:50:26.668Z,1.60
2023-05-14T21:53:18.218Z,2.47
2023-05-14T21:55:50.410Z,3.65
2023-05-14T21:58:23.931Z,2.20
2023-05-14T22:03:23.444Z,1.95
2023-05-14T22:05:53.576Z,2.00
2023-05-14T22:08:25.769Z,1.52
2023-05-14T22:10:55.336Z,1.27
2023-05-14T22:16:05.277Z,1.50
2023-05-14T22:18:42.707Z,1.17
2023-05-14T22:21:10.035Z,2.75
2023-05-14T22:23:37.601Z,1.98
2023-05-14T22:26:05.322Z,2.15
2023-05-14T22:28:32.432Z,1.55
2023-05-14T22:31:00.083Z,1.58
2023-05-14T22:33:27.435Z,1.52
2023-05-14T22:35:54.590Z,1.65
2023-05-14T22:38:21.699Z,1.95
2023-05-14T22:40:51.969Z,2.05
2023-05-14T22:43:19.220Z,1.85
2023-05-14T22:45:46.308Z,1.90
2023-05-14T22:48:13.475Z,2.47
2023-05-14T22:50:40.688Z,2.08
2023-05-14T22:53:08.016Z,1.88
2023-05-14T22:55:35.556Z,2.95
2023-05-14T22:58:02.811Z,1.13
2023-05-14T23:00:30.333Z,2.55
2023-05-14T23:02:57.629Z,3.03
2023-05-14T23:05:25.018Z,2.72
2023-05-14T23:07:53.174Z,3.55
2023-05-14T23:10:20.438Z,2.70
2023-05-14T23:12:50.677Z,2.42
2023-05-14T23:15:18.030Z,2.00
2023-05-14T23:17:45.368Z,2.22
2023-05-14T23:20:12.771Z,3.70
2023-05-14T23:22:40.904Z,2.60
2023-05-14T23:25:08.468Z,1.50
2023-05-14T23:27:35.738Z,1.85
2023-05-14T23:30:04.464Z,1.35
2023-05-14T23:32:31.945Z,2.85
2023-05-14T23:34:59.371Z,2.40
2023-05-14T23:37:26.599Z,2.67
2023-05-14T23:39:53.820Z,4.53
2023-05-14T23:42:21.137Z,4.22
2023-05-14T23:44:48.364Z,3.67
2023-05-14T23:47:15.797Z,2.92
2023-05-14T23:49:42.945Z,2.50
2023-05-14T23:52:10.183Z,2.90
2023-05-14T23:54:37.313Z,1.65
2023-05-14T23:57:04.758Z,1.85
2023-05-14T23:59:32.018Z,3.72
